Time;durP1;ratioP1;P1;durP2;ratioP2;P2;SDS_P1;SDS_P2;PMS_P1;PMS_P2;Temp;Humidity;BMP_temperature;BMP_pressure;BME280_temperature;BME280_humidity;BME280_pressure;Samples;Min_cycle;Max_cycle;Signal;HPM_P1;HPM_P2
2022/06/27 00:00:50;;;;;;;2.20;2.10;;;22.70;95.30;;;;;;10459330;28;20224;-79
2022/06/27 00:05:52;;;;;;;2.13;2.03;;;22.60;95.30;;;;;;10461709;28;20224;-78
2022/06/27 00:10:54;;;;;;;2.20;2.10;;;22.50;94.90;;;;;;10465311;28;20615;-79
2022/06/27 00:15:57;;;;;;;1.97;1.87;;;22.50;95.50;;;;;;10465236;28;20240;-79
2022/06/27 00:20:59;;;;;;;1.93;1.83;;;22.50;95.30;;;;;;10467724;28;20219;-79
2022/06/27 00:26:02;;;;;;;3.60;1.97;;;22.40;94.80;;;;;;10442342;28;20252;-78
2022/06/27 00:31:06;;;;;;;2.80;2.10;;;22.40;96.00;;;;;;10462082;28;20225;-79
2022/06/27 00:36:08;;;;;;;3.63;3.43;;;22.20;96.90;;;;;;10456826;23;20667;-76
2022/06/27 00:41:10;;;;;;;5.20;4.60;;;22.00;98.30;;;;;;10456102;28;20201;-77
2022/06/27 00:46:14;;;;;;;9.03;8.47;;;21.60;99.40;;;;;;10435368;28;20613;-76
2022/06/27 00:51:16;;;;;;;7.87;7.20;;;21.20;99.90;;;;;;10451051;28;20225;-77
2022/06/27 00:56:18;;;;;;;6.70;6.20;;;20.90;99.90;;;;;;10451389;28;20296;-77
2022/06/27 01:01:22;;;;;;;5.87;5.57;;;20.60;99.90;;;;;;10440041;28;20272;-77
2022/06/27 01:06:24;;;;;;;5.30;4.93;;;20.40;99.90;;;;;;10448773;28;20225;-77
2022/06/27 01:11:26;;;;;;;6.10;5.57;;;20.20;99.90;;;;;;10450704;28;20323;-77
2022/06/27 01:16:30;;;;;;;6.93;6.33;;;20.10;99.90;;;;;;10458142;28;20704;-77
2022/06/27 01:21:34;;;;;;;6.00;5.57;;;19.90;99.90;;;;;;10458799;28;20205;-77
2022/06/27 01:26:38;;;;;;;5.30;5.10;;;19.80;99.90;;;;;;10451716;28;20764;-77
2022/06/27 01:31:40;;;;;;;5.40;5.10;;;19.70;99.90;;;;;;10450677;28;20251;-77
2022/06/27 01:36:43;;;;;;;5.00;4.80;;;19.60;99.90;;;;;;10452124;28;20526;-77
2022/06/27 01:41:52;;;;;;;5.57;4.93;;;19.50;99.90;;;;;;10451791;28;20283;-77
2022/06/27 01:47:01;;;;;;;6.90;4.10;;;19.40;99.90;;;;;;10449122;28;20225;-77
2022/06/27 01:52:05;;;;;;;4.80;4.40;;;19.40;99.90;;;;;;10450145;28;20193;-77
2022/06/27 01:57:08;;;;;;;4.47;4.27;;;19.40;99.90;;;;;;10429748;28;20306;-77
2022/06/27 02:02:12;;;;;;;4.37;4.03;;;19.50;99.90;;;;;;10449965;28;20237;-77
2022/06/27 02:07:20;;;;;;;6.30;4.30;;;19.60;99.90;;;;;;10450000;28;20248;-77
2022/06/27 02:12:28;;;;;;;4.20;4.00;;;19.70;99.90;;;;;;10450655;28;20239;-77
2022/06/27 02:17:30;;;;;;;4.07;3.77;;;19.70;99.90;;;;;;10429516;28;20552;-76
2022/06/27 02:22:32;;;;;;;3.93;3.73;;;19.90;99.90;;;;;;10436938;28;20233;-76
2022/06/27 02:27:37;;;;;;;4.20;3.90;;;19.90;99.90;;;;;;10457031;28;20199;-76
2022/06/27 02:32:40;;;;;;;3.67;3.50;;;20.00;99.90;;;;;;10456977;28;20691;-75
2022/06/27 02:37:43;;;;;;;4.70;4.40;;;20.00;99.90;;;;;;10455071;28;20201;-76
2022/06/27 02:42:48;;;;;;;4.23;3.93;;;20.00;99.90;;;;;;10456624;28;20221;-76
2022/06/27 02:47:51;;;;;;;3.93;3.73;;;20.00;99.90;;;;;;10434325;28;20288;-77
2022/06/27 02:52:56;;;;;;;5.00;4.13;;;20.00;99.90;;;;;;10456364;28;20271;-76
2022/06/27 02:58:02;;;;;;;4.60;4.00;;;20.00;99.90;;;;;;10454514;28;20621;-76
2022/06/27 03:03:07;;;;;;;3.87;3.67;;;20.00;99.90;;;;;;10454862;28;20217;-76
2022/06/27 03:08:13;;;;;;;3.07;2.87;;;20.00;99.90;;;;;;10455565;28;20280;-77
2022/06/27 03:13:17;;;;;;;4.23;4.03;;;20.00;99.90;;;;;;10454258;28;20209;-76
2022/06/27 03:18:19;;;;;;;4.23;4.03;;;20.00;99.90;;;;;;10454034;28;20602;-76
2022/06/27 03:23:48;;;;;;;4.50;4.30;;;20.00;99.90;;;;;;10428992;28;20299;-77
2022/06/27 03:28:53;;;;;;;5.77;5.47;;;20.00;99.90;;;;;;10453604;28;20193;-77
2022/06/27 03:33:56;;;;;;;5.30;5.00;;;20.00;99.90;;;;;;10451977;28;20228;-76
2022/06/27 03:39:07;;;;;;;4.67;4.37;;;20.00;99.90;;;;;;10447267;28;20284;-77
2022/06/27 03:44:11;;;;;;;5.73;5.43;;;20.10;99.90;;;;;;10452734;28;20600;-77
2022/06/27 03:54:53;;;;;;;5.30;5.00;;;20.10;99.90;;;;;;10451659;28;20216;-78
2022/06/27 03:59:56;;;;;;;5.20;4.73;;;20.20;99.90;;;;;;10448265;28;20197;-77
2022/06/27 04:04:59;;;;;;;5.87;5.37;;;20.10;99.90;;;;;;10450998;28;20221;-77
2022/06/27 04:10:01;;;;;;;5.87;5.50;;;20.10;99.90;;;;;;10444505;28;20211;-77
2022/06/27 04:15:07;;;;;;;5.63;5.33;;;20.10;99.90;;;;;;10446875;28;20426;-77
2022/06/27 04:20:38;;;;;;;4.60;4.17;;;20.00;99.90;;;;;;10413816;28;20685;-77
2022/06/27 04:25:42;;;;;;;9.80;4.77;;;19.80;99.90;;;;;;10429720;28;20229;-77
2022/06/27 04:30:47;;;;;;;5.03;4.63;;;19.70;99.90;;;;;;10450040;28;20273;-77
2022/06/27 04:35:50;;;;;;;5.00;4.70;;;19.70;99.90;;;;;;10449907;28;20217;-77
2022/06/27 04:40:53;;;;;;;5.27;4.87;;;19.70;99.90;;;;;;10449773;28;20196;-76
2022/06/27 04:45:58;;;;;;;4.63;4.27;;;19.80;99.90;;;;;;10447919;28;20225;-76
2022/06/27 04:51:22;;;;;;;4.70;4.40;;;19.80;99.90;;;;;;10445524;28;20266;-76
2022/06/27 04:56:25;;;;;;;4.00;3.63;;;19.90;99.90;;;;;;10449052;28;20304;-77
2022/06/27 05:01:28;;;;;;;4.63;4.27;;;19.90;99.90;;;;;;10429887;28;20243;-76
2022/06/27 05:06:34;;;;;;;4.30;4.10;;;19.90;99.90;;;;;;10445650;28;20693;-77
2022/06/27 05:11:39;;;;;;;4.90;4.60;;;19.90;99.90;;;;;;10448445;28;20692;-77
2022/06/27 05:16:44;;;;;;;4.57;4.17;;;20.00;99.90;;;;;;10450950;28;20251;-78
2022/06/27 05:21:49;;;;;;;4.67;4.10;;;20.20;99.90;;;;;;10450924;28;20205;-78
2022/06/27 05:26:54;;;;;;;4.70;4.30;;;20.30;99.90;;;;;;10450597;28;20582;-77
2022/06/27 05:31:58;;;;;;;4.83;4.30;;;20.60;99.90;;;;;;10451404;28;20564;-77
2022/06/27 05:37:00;;;;;;;4.80;4.40;;;20.70;99.90;;;;;;10451282;28;20220;-78
2022/06/27 05:42:05;;;;;;;4.73;3.93;;;20.90;99.90;;;;;;10454742;28;20205;-77
2022/06/27 05:47:10;;;;;;;5.23;3.80;;;21.00;99.90;;;;;;10447894;28;20574;-75
2022/06/27 05:52:40;;;;;;;4.20;3.90;;;21.10;99.90;;;;;;10447466;28;20233;-76
2022/06/27 05:57:42;;;;;;;3.87;3.50;;;21.30;99.90;;;;;;10439009;28;20224;-76
2022/06/27 06:02:47;;;;;;;3.00;2.80;;;21.40;99.90;;;;;;10457336;28;20780;-76
2022/06/27 06:07:53;;;;;;;4.07;3.87;;;21.50;99.90;;;;;;10456598;28;20231;-76
2022/06/27 06:12:56;;;;;;;3.70;3.50;;;21.60;99.90;;;;;;10440093;28;20270;-76
2022/06/27 06:18:01;;;;;;;2.63;2.43;;;21.70;99.90;;;;;;10440140;28;20193;-77
2022/06/27 06:23:03;;;;;;;3.30;3.10;;;21.80;99.90;;;;;;10457893;28;20271;-77
2022/06/27 06:28:06;;;;;;;3.43;3.13;;;21.80;99.90;;;;;;10456623;28;20601;-77
2022/06/27 06:33:10;;;;;;;5.20;3.67;;;21.80;99.90;;;;;;10484528;22;20250;-79
2022/06/27 06:38:13;;;;;;;2.60;2.40;;;22.10;99.90;;;;;;10492001;28;20196;-79
2022/06/27 06:43:17;;;;;;;1.30;1.30;;;22.40;99.90;;;;;;10481834;28;20220;-79
2022/06/27 06:48:23;;;;;;;2.70;2.50;;;22.70;99.90;;;;;;10509977;28;20272;-80
2022/06/27 06:53:25;;;;;;;2.47;2.27;;;22.90;99.90;;;;;;10483601;28;20212;-80
2022/06/27 06:58:30;;;;;;;2.00;1.90;;;23.10;99.90;;;;;;10505871;28;20204;-79
2022/06/27 07:03:34;;;;;;;1.80;1.70;;;23.30;99.90;;;;;;10478453;28;20228;-80
2022/06/27 07:08:39;;;;;;;1.70;1.60;;;23.50;99.90;;;;;;10483508;28;20285;-81
2022/06/27 07:13:45;;;;;;;1.87;1.77;;;23.90;99.90;;;;;;10497676;28;20213;-80
2022/06/27 07:18:49;;;;;;;3.07;1.90;;;24.10;99.90;;;;;;10508595;28;20223;-81
2022/06/27 07:23:52;;;;;;;1.90;1.77;;;24.10;99.90;;;;;;10503644;28;20216;-81
2022/06/27 07:28:55;;;;;;;2.50;1.70;;;24.10;99.90;;;;;;10485649;28;20199;-80
2022/06/27 07:34:00;;;;;;;1.40;1.30;;;24.30;99.90;;;;;;10457338;28;20267;-79
2022/06/27 07:39:03;;;;;;;2.30;1.57;;;24.40;99.90;;;;;;10484181;28;20196;-80
2022/06/27 07:44:06;;;;;;;2.27;2.17;;;24.40;99.90;;;;;;10494287;28;20220;-80
2022/06/27 07:49:10;;;;;;;1.20;1.13;;;24.30;99.90;;;;;;10496196;28;20222;-81
2022/06/27 07:54:13;;;;;;;1.63;1.60;;;24.20;99.90;;;;;;10489690;28;20215;-80
2022/06/27 07:59:15;;;;;;;1.30;1.30;;;24.10;99.90;;;;;;10491544;28;20230;-79
2022/06/27 08:04:18;;;;;;;2.17;1.97;;;24.20;99.90;;;;;;10491901;28;20248;-80
2022/06/27 08:09:22;;;;;;;2.00;1.63;;;24.50;99.90;;;;;;10488029;28;20201;-79
2022/06/27 08:14:25;;;;;;;1.83;1.73;;;24.90;99.90;;;;;;10477823;28;20246;-79
2022/06/27 08:19:29;;;;;;;1.70;1.60;;;25.60;99.90;;;;;;10488369;28;20230;-79
2022/06/27 08:24:31;;;;;;;1.90;1.80;;;25.90;99.90;;;;;;10490873;28;20684;-80
2022/06/27 08:29:59;;;;;;;2.07;1.80;;;26.00;99.90;;;;;;10492620;28;20196;-80
2022/06/27 08:35:06;;;;;;;2.20;2.10;;;26.30;99.90;;;;;;10488697;28;20219;-80
2022/06/27 08:40:10;;;;;;;2.03;1.93;;;26.60;99.90;;;;;;10471022;28;20216;-80
2022/06/27 08:45:15;;;;;;;2.37;2.20;;;26.50;99.90;;;;;;10454087;28;20229;-81
2022/06/27 08:50:19;;;;;;;2.40;2.20;;;26.30;99.90;;;;;;10468163;28;20247;-78
2022/06/27 08:55:27;;;;;;;2.50;2.30;;;25.90;99.90;;;;;;10445344;28;20673;-80
2022/06/27 09:00:30;;;;;;;2.40;2.30;;;25.50;99.90;;;;;;10456577;28;20221;-80
2022/06/27 09:05:35;;;;;;;2.53;2.43;;;25.20;99.90;;;;;;10449135;28;20220;-81
2022/06/27 09:10:39;;;;;;;3.00;2.83;;;25.10;99.90;;;;;;10475948;28;20193;-80
2022/06/27 09:15:52;;;;;;;2.10;1.93;;;25.00;99.90;;;;;;10472511;28;20213;-80
2022/06/27 09:21:03;;;;;;;2.73;2.50;;;24.90;99.90;;;;;;10464081;28;20212;-80
2022/06/27 09:26:09;;;;;;;3.73;2.40;;;24.80;99.90;;;;;;10461736;28;20221;-80
2022/06/27 09:31:30;;;;;;;2.50;2.40;;;24.70;99.90;;;;;;10489270;28;20200;-82
2022/06/27 09:36:39;;;;;;;2.43;2.20;;;24.80;99.90;;;;;;10441847;28;20221;-81
2022/06/27 09:41:45;;;;;;;3.17;2.87;;;24.90;99.90;;;;;;10473263;28;20207;-79
2022/06/27 09:46:55;;;;;;;2.80;2.70;;;24.90;99.90;;;;;;10485022;28;20689;-79
2022/06/27 09:52:00;;;;;;;3.03;2.90;;;25.00;99.90;;;;;;10448711;28;20197;-81
2022/06/27 09:57:02;;;;;;;2.80;2.60;;;25.60;99.90;;;;;;10460169;28;20568;-80
2022/06/27 10:02:06;;;;;;;2.87;2.77;;;26.10;99.90;;;;;;10461684;28;20288;-81
2022/06/27 10:07:11;;;;;;;2.30;2.20;;;26.80;99.90;;;;;;10461287;28;20267;-80
2022/06/27 10:12:28;;;;;;;2.17;2.07;;;27.30;99.90;;;;;;10464376;28;20197;-79
2022/06/27 10:17:33;;;;;;;2.20;2.10;;;27.30;99.90;;;;;;10460705;28;20239;-81
2022/06/27 10:22:37;;;;;;;2.60;2.50;;;26.90;99.90;;;;;;10471750;28;20193;-80
2022/06/27 10:27:39;;;;;;;2.83;2.70;;;26.40;99.90;;;;;;10464620;28;20224;-81
2022/06/27 10:32:46;;;;;;;2.60;2.50;;;26.00;99.90;;;;;;10492238;28;20196;-80
2022/06/27 10:37:50;;;;;;;2.80;2.60;;;25.60;99.90;;;;;;10455495;28;20194;-81
2022/06/27 10:42:53;;;;;;;3.10;2.90;;;25.20;99.90;;;;;;10461112;28;20204;-81
2022/06/27 10:47:57;;;;;;;3.50;3.30;;;24.90;99.90;;;;;;10466005;28;20227;-81
2022/06/27 10:53:23;;;;;;;2.83;2.63;;;24.60;99.90;;;;;;10476950;28;20254;-81
2022/06/27 10:58:30;;;;;;;2.57;2.43;;;24.30;99.90;;;;;;10459187;28;20288;-81
2022/06/27 11:03:37;;;;;;;2.93;2.83;;;24.20;99.90;;;;;;10467743;28;20227;-81
2022/06/27 11:08:42;;;;;;;4.23;3.90;;;24.10;99.90;;;;;;10476754;28;20239;-82
2022/06/27 11:13:47;;;;;;;4.10;3.80;;;24.10;99.90;;;;;;10454528;28;20278;-80
2022/06/27 11:18:51;;;;;;;3.53;3.33;;;24.00;99.90;;;;;;10473809;28;20204;-80
2022/06/27 11:24:00;;;;;;;3.87;3.57;;;24.00;99.90;;;;;;10472332;28;20248;-81
2022/06/27 11:34:24;;;;;;;3.80;3.60;;;23.90;99.90;;;;;;10477575;28;20227;-81
2022/06/27 11:39:30;;;;;;;3.60;3.40;;;23.90;99.90;;;;;;10473663;28;20656;-80
2022/06/27 11:44:33;;;;;;;3.93;3.77;;;23.80;99.90;;;;;;10487458;28;20221;-80
2022/06/27 11:49:37;;;;;;;3.90;3.60;;;23.90;99.90;;;;;;10477266;28;20202;-81
2022/06/27 11:54:43;;;;;;;4.57;3.57;;;23.80;99.90;;;;;;10436362;28;20228;-82
2022/06/27 11:59:49;;;;;;;3.60;3.40;;;23.70;99.90;;;;;;10468364;28;20216;-80
2022/06/27 12:05:03;;;;;;;4.03;3.83;;;23.80;99.90;;;;;;10477875;28;20281;-80
2022/06/27 12:10:08;;;;;;;3.67;3.37;;;23.70;99.90;;;;;;10476378;28;20268;-79
2022/06/27 12:15:20;;;;;;;3.53;3.37;;;23.60;99.90;;;;;;10475304;28;20219;-80
2022/06/27 12:20:22;;;;;;;3.67;3.37;;;23.60;99.90;;;;;;10498579;28;20287;-80
2022/06/27 12:25:26;;;;;;;3.10;3.00;;;23.60;99.90;;;;;;10485188;28;20232;-82
2022/06/27 12:30:28;;;;;;;3.50;3.30;;;23.50;99.90;;;;;;10452985;28;20298;-81
2022/06/27 12:35:31;;;;;;;4.03;3.20;;;23.40;99.90;;;;;;10441453;22;1201413;-78
2022/06/27 12:40:35;;;;;;;3.50;3.30;;;23.40;99.90;;;;;;10471804;28;20204;-79
2022/06/27 12:45:38;;;;;;;3.20;3.00;;;23.30;99.90;;;;;;10456421;28;20304;-78
2022/06/27 12:50:41;;;;;;;3.20;2.90;;;23.30;99.90;;;;;;10458725;28;20196;-79
2022/06/27 12:55:44;;;;;;;3.20;3.00;;;23.30;99.90;;;;;;10479370;28;20213;-78
2022/06/27 13:00:47;;;;;;;3.43;3.33;;;23.20;99.90;;;;;;10461404;28;20206;-78
2022/06/27 13:05:50;;;;;;;3.87;3.50;;;23.20;99.90;;;;;;10474553;28;20684;-78
2022/06/27 13:10:56;;;;;;;3.70;3.40;;;23.20;99.90;;;;;;10444319;28;20204;-78
2022/06/27 13:15:58;;;;;;;3.43;3.23;;;23.10;99.90;;;;;;10474128;28;20250;-78
2022/06/27 13:21:00;;;;;;;2.70;2.60;;;23.10;99.90;;;;;;10470026;28;20200;-78
2022/06/27 13:26:04;;;;;;;3.23;2.70;;;23.10;99.90;;;;;;10451610;28;20231;-78
2022/06/27 13:31:07;;;;;;;2.60;2.37;;;23.10;99.90;;;;;;10481830;28;20531;-79
2022/06/27 13:36:09;;;;;;;3.80;2.43;;;23.10;99.90;;;;;;10475769;28;20240;-78
2022/06/27 13:41:12;;;;;;;2.40;2.20;;;23.10;99.90;;;;;;10486309;28;20601;-78
2022/06/27 13:46:14;;;;;;;2.40;2.27;;;23.20;99.90;;;;;;10463752;28;20780;-77
2022/06/27 13:51:17;;;;;;;2.70;2.60;;;23.30;99.90;;;;;;10464992;28;20208;-78
2022/06/27 13:56:20;;;;;;;2.60;2.50;;;23.30;99.90;;;;;;10457750;28;20236;-78
2022/06/27 14:01:22;;;;;;;2.63;2.53;;;23.40;99.90;;;;;;10486789;28;20204;-78
2022/06/27 14:11:45;;;;;;;3.30;3.00;;;23.50;99.90;;;;;;10459246;28;20601;-78
2022/06/27 14:16:47;;;;;;;3.13;2.93;;;23.60;99.90;;;;;;10480079;28;20685;-79
2022/06/27 14:21:50;;;;;;;3.17;2.97;;;23.60;99.90;;;;;;10467646;28;20683;-79
2022/06/27 14:26:53;;;;;;;2.40;2.30;;;23.60;99.90;;;;;;10463126;28;20293;-79
2022/06/27 14:31:55;;;;;;;2.73;2.53;;;23.60;99.90;;;;;;10463126;28;20254;-82
2022/06/27 14:36:57;;;;;;;2.73;2.60;;;23.60;99.90;;;;;;10454837;28;20217;-80
2022/06/27 14:42:01;;;;;;;3.00;2.80;;;23.60;99.90;;;;;;10457417;28;20630;-79
2022/06/27 14:47:05;;;;;;;2.87;2.70;;;23.70;99.90;;;;;;10455855;28;20231;-79
2022/06/27 14:52:08;;;;;;;4.40;2.80;;;23.70;99.90;;;;;;10483542;28;20660;-79
2022/06/27 14:57:11;;;;;;;2.70;2.60;;;23.80;99.90;;;;;;10497209;28;20248;-79
2022/06/27 15:02:13;;;;;;;2.73;2.53;;;23.90;99.90;;;;;;10481292;28;20258;-80
2022/06/27 15:07:16;;;;;;;3.83;2.57;;;24.00;99.90;;;;;;10476190;28;20231;-79
2022/06/27 15:12:19;;;;;;;2.53;2.43;;;24.00;99.90;;;;;;10447896;28;20263;-79
2022/06/27 15:17:21;;;;;;;3.20;2.70;;;24.00;99.90;;;;;;10478429;28;20217;-80
2022/06/27 15:22:23;;;;;;;3.10;2.90;;;24.10;99.90;;;;;;10476298;28;20271;-80
2022/06/27 15:27:27;;;;;;;3.00;2.80;;;24.00;99.90;;;;;;10496999;28;20224;-79
2022/06/27 15:32:29;;;;;;;3.10;2.97;;;24.00;99.90;;;;;;10498467;28;20196;-80
2022/06/27 15:37:31;;;;;;;3.07;2.97;;;23.90;99.90;;;;;;10500590;28;20274;-79
2022/06/27 15:42:35;;;;;;;2.97;2.77;;;23.80;99.90;;;;;;10503066;28;20271;-79
2022/06/27 15:47:37;;;;;;;3.60;3.40;;;23.70;99.90;;;;;;10484306;28;20231;-80
2022/06/27 15:52:39;;;;;;;3.27;3.07;;;23.70;99.90;;;;;;10474203;28;20200;-80
2022/06/27 15:57:43;;;;;;;2.87;2.77;;;23.60;99.90;;;;;;10464914;28;20213;-80
2022/06/27 16:02:45;;;;;;;3.53;3.33;;;23.60;99.90;;;;;;10477137;28;20193;-80
2022/06/27 16:07:47;;;;;;;3.80;3.50;;;23.50;99.90;;;;;;10483393;28;20228;-81
2022/06/27 16:12:52;;;;;;;3.77;3.57;;;23.50;99.90;;;;;;10467958;28;20216;-80
2022/06/27 16:17:54;;;;;;;3.23;3.13;;;23.40;99.90;;;;;;10496946;28;20247;-79
2022/06/27 16:22:56;;;;;;;3.50;3.37;;;23.30;99.90;;;;;;10480911;28;20567;-79
2022/06/27 16:28:02;;;;;;;3.63;3.37;;;23.40;99.90;;;;;;10496860;28;20232;-79
2022/06/27 16:33:05;;;;;;;3.33;3.20;;;23.60;99.90;;;;;;10470499;28;20200;-80
2022/06/27 16:38:08;;;;;;;2.97;2.77;;;23.60;99.90;;;;;;10476042;28;20208;-81
2022/06/27 16:43:18;;;;;;;3.07;2.87;;;23.50;99.90;;;;;;10482761;28;20212;-80
2022/06/27 16:48:22;;;;;;;2.67;2.57;;;23.40;99.90;;;;;;10494401;28;20217;-80
2022/06/27 16:53:24;;;;;;;3.43;3.23;;;23.30;99.90;;;;;;10465305;28;20205;-80
2022/06/27 16:58:27;;;;;;;4.10;3.80;;;23.10;99.90;;;;;;10498685;28;20200;-80
2022/06/27 17:03:30;;;;;;;6.03;5.40;;;23.00;99.90;;;;;;10478240;28;20225;-80
2022/06/27 17:08:33;;;;;;;6.13;4.93;;;22.70;99.90;;;;;;10488833;28;20224;-80
2022/06/27 17:13:36;;;;;;;8.10;7.60;;;22.40;99.90;;;;;;10465116;28;20417;-79
2022/06/27 17:18:38;;;;;;;7.97;7.57;;;22.00;99.90;;;;;;10462947;28;20539;-80
2022/06/27 17:23:42;;;;;;;8.80;8.13;;;21.70;99.90;;;;;;10473745;28;20264;-80
2022/06/27 17:28:45;;;;;;;8.70;7.90;;;21.40;99.90;;;;;;10485673;28;20227;-80
2022/06/27 17:33:48;;;;;;;8.53;8.13;;;21.30;99.90;;;;;;10465897;28;20260;-79
2022/06/27 17:38:50;;;;;;;9.90;9.30;;;21.40;99.90;;;;;;10469743;28;20197;-79
2022/06/27 17:43:53;;;;;;;9.53;9.13;;;21.20;99.90;;;;;;10475670;28;20556;-79
2022/06/27 17:48:59;;;;;;;9.30;8.80;;;21.20;99.90;;;;;;10449348;28;20645;-80
2022/06/27 17:54:01;;;;;;;8.23;7.83;;;21.10;99.90;;;;;;10491357;28;20241;-80
2022/06/27 17:59:05;;;;;;;7.30;6.90;;;21.00;99.90;;;;;;10480405;28;20193;-81
2022/06/27 18:04:07;;;;;;;9.60;8.90;;;21.10;99.90;;;;;;10500269;28;20706;-79
2022/06/27 18:09:09;;;;;;;8.50;7.90;;;21.10;99.90;;;;;;10463170;28;20232;-80
2022/06/27 18:14:13;;;;;;;8.87;8.27;;;21.10;99.90;;;;;;10487706;28;20594;-81
2022/06/27 18:19:15;;;;;;;7.73;7.30;;;21.10;99.90;;;;;;10469120;28;20573;-80
2022/06/27 18:24:17;;;;;;;8.07;7.57;;;21.20;99.90;;;;;;10498148;28;20224;-78
2022/06/27 18:29:21;;;;;;;7.03;6.63;;;21.20;99.90;;;;;;10489335;28;20552;-78
2022/06/27 18:34:24;;;;;;;9.13;8.50;;;21.30;99.90;;;;;;10522030;22;20718;-81
2022/06/27 18:39:27;;;;;;;7.00;6.60;;;21.30;99.90;;;;;;10467388;28;20196;-83
2022/06/27 18:44:31;;;;;;;14.67;10.73;;;21.30;99.90;;;;;;10443039;28;20217;-82
2022/06/27 18:49:33;;;;;;;11.60;10.80;;;21.20;99.90;;;;;;10462345;28;20225;-82
2022/06/27 18:54:36;;;;;;;11.30;10.10;;;21.00;99.90;;;;;;10499971;28;20588;-82
2022/06/27 18:59:39;;;;;;;12.27;11.47;;;20.90;99.90;;;;;;10511025;28;20185;-81
2022/06/27 19:04:43;;;;;;;12.23;11.13;;;20.80;99.90;;;;;;10492517;28;20694;-80
2022/06/27 19:09:46;;;;;;;11.23;10.53;;;20.70;99.90;;;;;;10477164;28;20213;-80
2022/06/27 19:14:50;;;;;;;11.57;10.80;;;20.60;99.90;;;;;;10487163;28;20228;-81
2022/06/27 19:19:52;;;;;;;11.07;10.37;;;20.50;99.90;;;;;;10484031;28;20217;-81
2022/06/27 19:24:55;;;;;;;9.90;9.20;;;20.50;99.90;;;;;;10459010;28;20220;-80
2022/06/27 19:29:58;;;;;;;11.53;10.87;;;20.40;99.90;;;;;;10488748;28;20262;-80
2022/06/27 19:35:00;;;;;;;11.47;10.67;;;20.30;99.90;;;;;;10478363;28;20233;-82
2022/06/27 19:40:04;;;;;;;9.87;9.00;;;20.30;99.90;;;;;;10455425;28;20232;-83
2022/06/27 19:45:10;;;;;;;11.57;10.77;;;20.30;99.90;;;;;;10440006;28;20217;-81
2022/06/27 19:50:14;;;;;;;11.33;10.63;;;20.30;99.90;;;;;;10455387;28;20253;-81
2022/06/27 19:55:16;;;;;;;11.43;10.70;;;20.30;99.90;;;;;;10468056;28;20232;-81
2022/06/27 20:00:20;;;;;;;11.50;10.70;;;20.30;99.90;;;;;;10475640;28;20684;-80
2022/06/27 20:05:22;;;;;;;10.80;10.20;;;20.30;99.90;;;;;;10438491;28;20245;-81
2022/06/27 20:10:31;;;;;;;11.37;10.60;;;20.20;99.90;;;;;;10470036;28;20220;-81
2022/06/27 20:15:35;;;;;;;10.37;9.77;;;20.20;99.90;;;;;;10457069;28;20223;-81
2022/06/27 20:20:37;;;;;;;11.00;10.10;;;20.30;99.90;;;;;;10458261;28;20272;-81
2022/06/27 20:25:39;;;;;;;10.20;9.63;;;20.30;99.90;;;;;;10468986;28;20220;-81
2022/06/27 20:30:43;;;;;;;9.30;8.80;;;20.30;99.90;;;;;;10486173;28;20225;-81
2022/06/27 20:35:45;;;;;;;8.03;7.63;;;20.30;99.90;;;;;;10482066;28;20244;-81
2022/06/27 20:40:47;;;;;;;8.63;8.07;;;20.20;99.90;;;;;;10461146;28;20201;-82
2022/06/27 20:45:51;;;;;;;8.77;7.97;;;20.10;99.90;;;;;;10458836;28;20240;-81
2022/06/27 20:50:53;;;;;;;8.70;8.30;;;20.10;99.90;;;;;;10456552;28;20321;-81
2022/06/27 20:55:56;;;;;;;8.80;8.30;;;20.10;99.90;;;;;;10480749;28;20220;-82
2022/06/27 21:00:59;;;;;;;8.93;8.33;;;20.10;99.90;;;;;;10490245;28;20259;-80
2022/06/27 21:06:02;;;;;;;8.97;8.27;;;20.10;99.90;;;;;;10458549;28;20866;-82
2022/06/27 21:16:25;;;;;;;8.10;7.70;;;20.30;99.90;;;;;;10464982;28;20223;-82
2022/06/27 21:21:29;;;;;;;7.47;6.97;;;20.20;99.90;;;;;;10476940;28;20253;-82
2022/06/27 21:26:31;;;;;;;7.90;7.50;;;20.30;99.90;;;;;;10478684;28;20216;-81
2022/06/27 21:31:35;;;;;;;7.67;7.27;;;20.20;99.90;;;;;;10467501;28;20216;-81
2022/06/27 21:36:38;;;;;;;5.93;5.73;;;20.20;99.90;;;;;;10440597;28;20239;-82
2022/06/27 21:41:40;;;;;;;6.57;6.27;;;20.20;99.90;;;;;;10457674;28;20208;-81
2022/06/27 21:46:44;;;;;;;6.37;6.07;;;20.00;99.90;;;;;;10453689;28;20221;-82
2022/06/27 21:51:46;;;;;;;5.70;5.40;;;20.00;99.90;;;;;;10478917;28;20199;-81
2022/06/27 21:56:48;;;;;;;5.40;5.10;;;19.90;99.90;;;;;;10496775;28;20722;-81
2022/06/27 22:01:54;;;;;;;5.40;5.10;;;19.70;99.90;;;;;;10480230;28;20185;-80
2022/06/27 22:06:56;;;;;;;5.23;5.03;;;19.60;99.90;;;;;;10429192;28;20214;-80
2022/06/27 22:11:58;;;;;;;5.37;5.07;;;19.60;99.90;;;;;;10444956;28;20200;-81
2022/06/27 22:17:03;;;;;;;5.70;5.40;;;19.50;99.90;;;;;;10412120;28;20232;-81
2022/06/27 22:22:05;;;;;;;5.53;5.33;;;19.40;99.90;;;;;;10464673;28;20209;-80
2022/06/27 22:27:08;;;;;;;6.13;5.20;;;19.40;99.90;;;;;;10441867;28;20222;-81
2022/06/27 22:32:11;;;;;;;5.27;4.97;;;19.40;99.90;;;;;;10457215;28;20200;-82
2022/06/27 22:37:13;;;;;;;5.20;4.80;;;19.30;99.90;;;;;;10433949;28;20221;-82
2022/06/27 22:42:16;;;;;;;5.00;4.60;;;19.30;99.90;;;;;;10485556;28;20291;-81
2022/06/27 22:47:19;;;;;;;4.67;4.37;;;19.30;99.90;;;;;;10456465;28;20723;-82
2022/06/27 22:52:22;;;;;;;4.10;4.00;;;19.30;99.90;;;;;;10477042;28;20202;-82
2022/06/27 22:57:24;;;;;;;4.13;4.03;;;19.30;99.90;;;;;;10437464;28;20670;-81
2022/06/27 23:02:27;;;;;;;4.03;3.83;;;19.20;99.90;;;;;;10464508;28;20275;-80
2022/06/27 23:07:29;;;;;;;4.43;4.20;;;19.20;99.90;;;;;;10477015;28;20244;-80
2022/06/27 23:12:31;;;;;;;4.37;4.17;;;19.30;99.90;;;;;;10455877;28;20197;-81
2022/06/27 23:17:35;;;;;;;4.27;4.07;;;19.30;99.90;;;;;;10489931;28;20221;-80
2022/06/27 23:22:37;;;;;;;3.50;3.30;;;19.40;99.90;;;;;;10456970;28;20215;-80
2022/06/27 23:27:39;;;;;;;4.30;4.00;;;19.40;99.90;;;;;;10442612;28;20304;-81
2022/06/27 23:32:43;;;;;;;3.77;3.57;;;19.40;99.90;;;;;;10467570;28;20197;-81
2022/06/27 23:37:48;;;;;;;3.80;3.60;;;19.40;99.90;;;;;;10465788;28;20225;-80
2022/06/27 23:42:50;;;;;;;3.40;3.30;;;19.40;99.90;;;;;;10447022;28;20189;-81
2022/06/27 23:47:56;;;;;;;3.90;3.70;;;19.30;99.90;;;;;;10448350;28;20332;-82
2022/06/27 23:52:59;;;;;;;3.53;3.33;;;19.30;99.90;;;;;;10472383;28;20193;-81
2022/06/27 23:58:03;;;;;;;3.43;3.30;;;19.30;99.90;;;;;;10428895;28;20793;-81
